Abadi — V8V2002 — position and weather

sailwx.info

Track history (hours):
 
Tides and Currents Weather Stations Pressure Air Temp Water Temp Dewpoint Dewpoint Depression Visibility Wind Speed Wind Dir Waves Ship Positions

Abadi

Last reported at 2015-Feb-02 03:32 UTC. Time now 2015-Mar-02 00:59 UTC.
Position N 33°57' E 134°54'.
Warning: this ship's position is 27 days out of date.

Type: Ship (hazmat cat A). MMSI: 508011000.

Date/timePositionNaut miles runAvg speedWind from/ knotsBaromVisibWave heightAir tempDewpointWater temp
2015-Feb-02 03:32N 33°57' E 134°54'1212.6
2015-Feb-02 02:33N 34°10' E 134°57'1111.2
2015-Feb-02 01:33N 34°21' E 134°60'1313.2
2015-Feb-02 00:33N 34°29' E 135°12'10 9.9
2015-Feb-01 23:33N 34°33' E 135°23'2 1.8
2015-Feb-01 22:33N 34°33' E 135°25'0 0.0
2015-Feb-01 05:07N 34°33' E 135°25'0 0.0
2015-Feb-01 04:19N 34°33' E 135°25'0 0.0
2015-Feb-01 03:25N 34°33' E 135°25'0 0.0
2015-Feb-01 02:24N 34°33' E 135°25'0 0.0
2015-Feb-01 01:30N 34°33' E 135°25'1 0.9
2015-Feb-01 00:33N 34°33' E 135°24'9 9.2
2015-Jan-31 23:33N 34°30' E 135°13'1313.0
2015-Jan-31 22:33N 34°21' E 135°02'1111.3
2015-Jan-31 21:33N 34°10' E 135°00'7 7.3
2015-Jan-31 20:33N 34°03' E 134°59'9 8.6
2015-Jan-31 19:29N 33°54' E 134°58'  
Track history (hours):
 
Tides and Currents Weather Stations Pressure Air Temp Water Temp Dewpoint Dewpoint Depression Visibility Wind Speed Wind Dir Waves Ship Positions

Abadi

Last reported at 2015-Feb-02 03:32 UTC. Time now 2015-Mar-02 00:59 UTC.
Position N 33°57' E 134°54'.
Warning: this ship's position is 27 days out of date.

Type: Ship (hazmat cat A). MMSI: 508011000.

Date/timePositionNaut miles runAvg speedWind from/ knotsBaromVisibWave heightAir tempDewpointWater temp
2015-Feb-02 03:32N 33°57' E 134°54'1212.6
2015-Feb-02 02:33N 34°10' E 134°57'1111.2
2015-Feb-02 01:33N 34°21' E 134°60'1313.2
2015-Feb-02 00:33N 34°29' E 135°12'10 9.9
2015-Feb-01 23:33N 34°33' E 135°23'2 1.8
2015-Feb-01 22:33N 34°33' E 135°25'0 0.0
2015-Feb-01 05:07N 34°33' E 135°25'0 0.0
2015-Feb-01 04:19N 34°33' E 135°25'0 0.0
2015-Feb-01 03:25N 34°33' E 135°25'0 0.0
2015-Feb-01 02:24N 34°33' E 135°25'0 0.0
2015-Feb-01 01:30N 34°33' E 135°25'1 0.9
2015-Feb-01 00:33N 34°33' E 135°24'9 9.2
2015-Jan-31 23:33N 34°30' E 135°13'1313.0
2015-Jan-31 22:33N 34°21' E 135°02'1111.3
2015-Jan-31 21:33N 34°10' E 135°00'7 7.3
2015-Jan-31 20:33N 34°03' E 134°59'9 8.6
2015-Jan-31 19:29N 33°54' E 134°58'  

Dump ship's entire track history